CLASSIFICA

INVERNALISSIMA 2017

Bastia Umbra - PG

(17/12/2017)

DIVISIONI:
COMPETITIVA     CLASSIFICA:   ASSOLUTA    M     F    
CATEGORIE:   TUTTE    |   A   |   B   |   C   |   D   |   E   |   F   |   G   |   H   |   I   |   K   |   L   |   M   |   N   |   O   |   P   |   R   |   S   |   T  
FILTRO:
  Atleta      Team        Pulisci       Atleti classificati COMPETITIVA: 1690  

Cliccare sulle colonne per cambiare ordinamento
Azioni - Pos. M/F Cat. P.Cat. Pett Naz Atleta Squadra Tempo Distacco in tempo Distacco in metri Min/Km RealTime
1 22A012NTAWUYIRUSHINTEGE PONTIENILOVERUN ATHLETIC TERNI01:08:45 00:00:10 51 00:03:16 01:08:45
2 33A011CHIRCHIR ERASTUS KIPKORIRASD ATLETICA FUTURA ROMA01:09:01 00:00:26 132 00:03:16 01:09:01
3 44A09ADUGNA BINIYAM SENIBETAASD ATL VOMANO GRAN SASSO01:11:03 00:02:28 732 00:03:22 01:11:03
4 55A019PETRINI DANIELEILOVERUN ATHLETIC TERNI01:11:42 00:03:07 917 00:03:24 01:11:42
5 99A0776BISTOCCHI LUCAATLETICA IL COLLE ASD01:14:24 00:05:49 1.649 00:03:32 01:14:24
6 1010A01146RAITI ALESSANDROEDERA ATL. FORLI01:15:13 00:06:38 1.860 00:03:34 01:15:13
7 1111A1632BIANCHI MARCOATLAMATOSIMO01:15:17 00:06:42 1.877 00:03:34 01:15:16
8 1212A2209BOINEGA LUCAASD POL TIFERNUM V01:15:40 00:07:05 1.974 00:03:35 01:15:36
9 1515A31411MALFAGIA ALESSIOPOD LINO SPAGNOLI PG01:16:26 00:07:51 2.166 00:03:37 01:16:26
10 1616A4934FIORANI ANDREAATLETICA WINNER FOLIGNO01:16:29 00:07:54 2.179 00:03:38 01:16:29
11 1717A51781BRANCHESI CHRISTIANSATL SENIGALLIA01:16:33 00:07:58 2.195 00:03:38 01:16:33
12 1919A61119BARCELLI ANDREACOLLEMAR-ATHON CLUB01:16:59 00:08:24 2.301 00:03:39 01:16:48
13 2020A71767GIACOMELLI MATTEORUNNERS SANGEMINI TR01:17:08 00:08:33 2.338 00:03:39 01:17:07
14 2121A8481FARISI HAMZAASSATLLIBERTAS ORVIETO01:17:11 00:08:36 2.350 00:03:40 01:17:11
15 2322A91073MEZZETTI ALESSANDROCDP CIRCDIPPERUGINA01:18:27 00:09:52 2.653 00:03:43 01:18:27
16 2726A10970PANTALLA FABIOATLETICA WINNER FOLIGNO01:19:00 00:10:25 2.781 00:03:45 01:19:00
17 2928A111011ZUCCHINI MATTEOATLETICA WINNER FOLIGNO01:19:10 00:10:35 2.820 00:03:45 01:19:09
18 3332A121869MBAREK JAOUHARRUNCARD01:19:44 00:11:09 2.950 00:03:47 01:19:44
19 3635A131010ZIBETTI NICOLAATLETICA WINNER FOLIGNO01:19:48 00:11:13 2.965 00:03:47 01:19:47
20 3736A14719MENCULINI LORENZOATLETICA AVIS PERUGIA01:19:48 00:11:13 2.965 00:03:47 01:19:39
21 3837A15930FERREIRA DOS SANTOS FABRIZZIOATLETICA WINNER FOLIGNO01:19:57 00:11:22 2.999 00:03:47 01:19:57
22 4039A16208BOINEGA LORENZOASD POL TIFERNUM V01:20:04 00:11:29 3.025 00:03:48 01:20:00
23 4341A171916MARCANTONI DAVIDATLETICA CIVITANOVA01:20:09 00:11:34 3.044 00:03:48 01:20:07
24 4442A18861PANFILI MARCOATLETICA TAINO01:20:10 00:11:35 3.048 00:03:48 01:20:05
25 4543A19789MARIANI ANTONIOATLETICA IL COLLE ASD01:20:17 00:11:42 3.074 00:03:48 01:20:17
26 5048A20488SBERNA MICHELEASSATLLIBERTAS ORVIETO01:21:07 00:12:32 3.259 00:03:51 01:21:03
27 5250A21137PEPARINI ANDREAASD MARATONA MUGELLO01:21:21 00:12:46 3.310 00:03:51 01:21:14
28 5451A2214CAPOCCI MARCOILOVERUN ATHLETIC TERNI01:21:40 00:13:05 3.379 00:03:52 01:21:21
29 5653A23136FRAPPI NICOLAASD MARATONA MUGELLO01:21:50 00:13:15 3.415 00:03:53 01:21:46
30 5754A241920FRATINI NICOLO'TX FITNESS S.S.D. ARL01:21:54 00:13:19 3.430 00:03:53 01:21:51
31 6259A25920CIANCALEONI GIOELEATLETICA WINNER FOLIGNO01:22:09 00:13:34 3.484 00:03:54 01:22:07
32 6764A261668MENICHINI GABRIELERUNCARD01:22:22 00:13:47 3.530 00:03:54 01:22:18
33 7774A27636ORLANDONI EMANUELEATLAMATOSIMO01:23:14 00:14:39 3.713 00:03:57 01:23:04
34 9490A281772MINCARELLI EDOARDORUNNERS TORDINO01:24:14 00:15:39 3.919 00:04:00 01:24:05
35 10197A29725SCALI GIORGIOATLETICA AVIS PERUGIA01:24:40 00:16:05 4.007 00:04:01 01:24:37
36 116111A30487SBERNA FABIOASSATLLIBERTAS ORVIETO01:25:27 00:16:52 4.164 00:04:03 01:25:20
37 117112A311878MONSORNO LORISUSDCERMIS01:25:30 00:16:55 4.174 00:04:03 01:25:19
38 120115A32913BUSTI DANIELEATLETICA WINNER FOLIGNO01:25:42 00:17:07 4.213 00:04:04 01:25:39
39 121116A33800FURIANI FEDERICOATLETICA IL COLLE ASD01:25:44 00:17:09 4.220 00:04:04 01:25:37
40 126121A341919DI SILVIO ANTONIORUNCARD01:26:05 00:17:30 4.288 00:04:05 01:25:33
41 129124A35546SANTIFICETUR FILIPPOASSISI RUNNERS ASD01:26:15 00:17:40 4.321 00:04:05 01:26:12
42 137132A36251ROFENA ANDREAASD VITERBO RUNNERS01:26:31 00:17:56 4.373 00:04:06 01:26:20
43 146141A37381SANTINI STEFANOASA ASCOLI PICENO01:27:06 00:18:31 4.485 00:04:08 01:26:59
44 152147A38413AMELIO MATTEOASD ATLETICA MELITO BOLOGNA01:27:32 00:18:57 4.567 00:04:09 01:26:47
45 158153A391349CONTI GREGORIOMARATHON CLUB CITTA DI CASTEL01:27:58 00:19:23 4.648 00:04:10 01:27:51
46 161156A401753VALENTINI DIEGORUNCARD01:28:05 00:19:30 4.670 00:04:11 01:27:42
47 169164A41129ANDREOTTI MATTEOASD LIBERI PODISTI01:28:20 00:19:45 4.716 00:04:11 01:28:16
48 173168A421459TABARRINI ROBERTOPODISTICA AVIS DERUTA01:28:25 00:19:50 4.732 00:04:12 01:28:16
49 185180A43917CASALINI SERGIOATLETICA WINNER FOLIGNO01:28:58 00:20:23 4.833 00:04:13 01:28:58
50 186181A44571DE FULGENTIIS NAZZARENOATL AVIS SBENEDETTO DEL TR01:28:59 00:20:24 4.836 00:04:13 01:28:52
51 188183A45236CATALANI DANIELEASD VITERBO RUNNERS01:29:04 00:20:29 4.851 00:04:13 01:28:05
52 193188A46147COTTURONE GIUSEPPEASD NOI POCHI INTIMI01:29:15 00:20:40 4.885 00:04:14 01:29:13
53 208203A47559ZINGARINI PIER ALESSANDROASSISI RUNNERS ASD01:29:59 00:21:24 5.017 00:04:16 01:29:56
54 236227A48635MANZOTTI ELIAATLAMATOSIMO01:31:28 00:22:53 5.278 00:04:20 01:31:18
55 237228A49357CAROSATI MARCOAPERDIFIATO01:31:30 00:22:55 5.283 00:04:20 01:31:11
56 243234A501418RAPISARDA FRANCESCOPOD LINO SPAGNOLI PG01:31:48 00:23:13 5.335 00:04:21 01:31:11
57 256247A51637PIERUCCI MATTEOATLAMATOSIMO01:32:02 00:23:27 5.375 00:04:22 01:31:52
58 257248A52155BONCOMPAGNI DAVIDEASD OLYMPIC RUNNERS LAMA01:32:04 00:23:29 5.381 00:04:22 01:31:41
59 270261A53820CATA' ANDREAATLETICA PALOMBARA01:32:19 00:23:44 5.423 00:04:23 01:32:13
60 276267A54230ADAMINI MARCOASD VITERBO RUNNERS01:32:26 00:23:51 5.443 00:04:23 01:32:12
61 277268A55160MORANI DAVIDEASD OLYMPIC RUNNERS LAMA01:32:28 00:23:53 5.449 00:04:23 01:32:06
62 301291A56299MAZZESCHI ANDREAAMATORI PODISTICA AREZZO01:32:56 00:24:21 5.527 00:04:24 01:32:48
63 335324A57540RASCHELLA' DOMENICOASSISI RUNNERS ASD01:33:50 00:25:15 5.677 00:04:27 01:33:22
64 344331A581829ALUNNI DANIELETERNANA MARATHON CLUB ASD01:33:56 00:25:21 5.693 00:04:27 01:33:52
65 348334A591304ANTONELLI ERRICOIO CAMMINO IO CORRO01:34:03 00:25:28 5.712 00:04:28 01:33:58
66 363348A60145NIGRO TOMMASOASD NAPOLIRUN01:34:32 00:25:57 5.791 00:04:29 01:34:00
67 366351A611306CELLINESE FRANCESCOIO CAMMINO IO CORRO01:34:35 00:26:00 5.799 00:04:29 01:34:31
68 371355A62516DI CHIARO ANIELLOASSISI RUNNERS ASD01:34:40 00:26:05 5.812 00:04:29 01:34:36
69 378362A63362FIORITI EMANUELEAPERDIFIATO01:34:52 00:26:17 5.845 00:04:30 01:34:02
70 383367A641426MAURIZI MARIOPOD MORETTI CORVA01:34:57 00:26:22 5.858 00:04:30 01:33:38
71 392374A65840SACCAPERNI MIRCOATLETICA SPOLETO 201001:35:08 00:26:33 5.887 00:04:31 01:34:25
72 398380A661556ANTOLINI FRANCESCORUNCARD01:35:14 00:26:39 5.903 00:04:31 01:33:49
73 409389A67731TROVATI LUCAATLETICA AVIS PERUGIA01:35:27 00:26:52 5.938 00:04:32 01:34:40
74 431410A681310SPEZIALETTI RICCARDOIO CAMMINO IO CORRO01:36:00 00:27:25 6.025 00:04:33 01:35:54
75 444422A691289GALUPPA MATTEOGUBBIO RUNNERS01:36:20 00:27:45 6.077 00:04:34 01:35:26
76 471446A701847BURATTI CHRISTIANTITANS TEAM NOCERA UMBRA01:37:01 00:28:26 6.183 00:04:36 01:36:29
77 484457A71831SCIAMANNA DANIELEATLETICA PALOMBARA01:37:22 00:28:47 6.236 00:04:37 01:37:17
78 487460A721248AGAZZI ALESSANDROGTA CREMA01:37:26 00:28:51 6.246 00:04:37 01:37:14
79 495467A731628DI PORZIO MARCORUNCARD01:37:33 00:28:58 6.264 00:04:37 01:36:25
80 497469A741617COCCIA NICOLASRUNCARD01:37:34 00:28:59 6.267 00:04:38 01:36:26
81 501473A751427PACIONI PIERPAOLOPOD MORETTI CORVA01:37:44 00:29:09 6.292 00:04:38 01:35:02
82 534503A761893ANTONELLI GIONATAVOLUMNIA SERICAP PG01:38:27 00:29:52 6.400 00:04:40 01:37:38
83 544513A771587BONDI MARCORUNCARD01:38:38 00:30:03 6.427 00:04:41 01:38:32
84 548516A781897ERCOLANI EDUARDOVOLUMNIA SERICAP PG01:38:42 00:30:07 6.437 00:04:41 01:37:52
85 559525A791821CAROBELLI GIULIOSSDS MENS SANA IN CORPORE SANO01:38:55 00:30:20 6.469 00:04:41 01:38:08
86 566532A80500BUSTI FABIOASSISI RUNNERS ASD01:38:59 00:30:24 6.479 00:04:42 01:38:23
87 582542A811422CHIOINI MARCOPOD MORETTI CORVA01:39:27 00:30:52 6.547 00:04:43 01:38:53
88 611565A821894BARTOLINI LORENZOVOLUMNIA SERICAP PG01:40:11 00:31:36 6.654 00:04:45 01:38:52
89 620574A83819BATTISTINI MARCOATLETICA PALOMBARA01:40:26 00:31:51 6.690 00:04:46 01:40:19
90 629582A841921MARZI ALESSANDROATLETICA WINNER FOLIGNO01:40:41 00:32:06 6.726 00:04:46 01:40:21
91 634586A85515DEMONTIS LUCAASSISI RUNNERS ASD01:40:43 00:32:08 6.730 00:04:46 01:39:54
92 651601A861547PEZZA STEFANOPRETUZI RUNNERS TERAMO01:41:01 00:32:26 6.773 00:04:47 01:40:43
93 671619A87115BETTI GIOVANNIASD G POD R VALENTI01:41:20 00:32:45 6.818 00:04:48 01:40:57
94 684632A881402GILI SIMONEPOD LINO SPAGNOLI PG01:41:40 00:33:05 6.865 00:04:49 01:41:16
95 687635A89796REGNO ALEXATLETICA IL COLLE ASD01:41:45 00:33:10 6.876 00:04:49 01:40:26
96 698645A901679NICCHI GIORGIORUNCARD01:42:04 00:33:29 6.920 00:04:50 01:41:01
97 724667A911627DI PIETRO ARMANDORUNCARD01:42:29 00:33:54 6.978 00:04:52 01:42:28
98 754691A921548REGINELLI CLAUDIOPRETUZI RUNNERS TERAMO01:42:55 00:34:20 7.038 00:04:53 01:42:38
99 768702A93748FERRARI MATTEOATLETICA BRESCIA MARATHON01:43:14 00:34:39 7.081 00:04:54 01:42:06
100 780712A941686PALAZZETTI MATTEORUNCARD01:43:32 00:34:57 7.121 00:04:54 01:42:56
101 800728A95827PANI FRANCESCOATLETICA PALOMBARA01:43:44 00:35:09 7.148 00:04:55 01:43:38
102 801729A961661MARCONI LUCARUNCARD01:43:46 00:35:11 7.153 00:04:55 01:43:04
103 847761A97354BORIOSI LUCAAPERDIFIATO01:44:40 00:36:05 7.273 00:04:58 01:43:17
104 870780A981001STELLA LUDOVICOATLETICA WINNER FOLIGNO01:44:58 00:36:23 7.312 00:04:59 01:44:46
105 873783A99226VINCIO NICCOLO'ASD TEAM MARATHON BIKE01:45:02 00:36:27 7.321 00:04:59 01:43:43
106 881790A1001584BIAGETTI GIUSEPPERUNCARD01:45:18 00:36:43 7.356 00:05:00 01:44:00
107 883792A1011473RUGGIERI MASSIMILIANOPODISTICA DELLADRIATICO01:45:19 00:36:44 7.358 00:05:00 01:45:05
108 888796A1021036CACCHIATA LEONARDOCDP CIRCDIPPERUGINA01:45:26 00:36:51 7.373 00:05:00 01:44:38
109 891799A103257CAPORALI MARCOASPA BASTIA01:45:29 00:36:54 7.380 00:05:00 01:44:32
110 899806A1041155MORETTI CUSERI AMEDEOFREE RUNNERS AREZZO01:45:39 00:37:04 7.401 00:05:01 01:44:33
111 909814A10585MARCON FRANCESCOASD ATLETICA TUSCULUM01:45:59 00:37:24 7.444 00:05:01 01:45:47
112 928827A1061570AQUILANI GIORGIO ONORATORUNCARD01:46:14 00:37:39 7.476 00:05:02 01:45:00
113 937835A1071622COVARINO MICHELERUNCARD01:46:22 00:37:47 7.494 00:05:03 01:45:13
114 961855A1081731TORDONI LUCARUNCARD01:47:05 00:38:30 7.585 00:05:05 01:46:26
115 985877A1091750BELLUCCI GABRIELERUNCARD01:47:40 00:39:05 7.658 00:05:06 01:47:16
116 997888A110321FREDRO DIEGOAMATORI PODISTICA TERNI01:47:53 00:39:18 7.685 00:05:07 01:47:08
117 1018902A1111649GUIDUCCI MATTEORUNCARD01:48:18 00:39:43 7.736 00:05:08 01:47:10
118 1024907A1121576BARBINI FABRIZIORUNCARD01:48:24 00:39:49 7.749 00:05:08 01:48:02
119 1037918A1131603CARLETTI MARCORUNCARD01:48:58 00:40:23 7.818 00:05:10 01:48:52
120 1045925A1141641GALLO FRANCESCO ENNIORUNCARD01:49:11 00:40:36 7.844 00:05:11 01:47:48
121 1051930A115359CIBRUSCOLA FILIPPOAPERDIFIATO01:49:17 00:40:42 7.857 00:05:11 01:48:07
122 1064940A1161601CARASSAI GIACOMORUNCARD01:49:27 00:40:52 7.877 00:05:11 01:48:30
123 1068943A1171384LAEZZA MARCELLOOLIMPIA ATLETICA NETTUNO01:49:37 00:41:02 7.897 00:05:12 01:48:58
124 1072946A1181723SETTEMBRINI ANDREARUNCARD01:49:40 00:41:05 7.903 00:05:12 01:48:55
125 1078951A119832SCIAMANNA ROBERTOATLETICA PALOMBARA01:49:54 00:41:19 7.931 00:05:13 01:48:55
126 1092964A1201932PIERI FRANCESCOATLETICA WINNER FOLIGNO01:50:18 00:41:43 7.979 00:05:14 01:48:56
127 1093965A121527MANTOVANI MARCOASSISI RUNNERS ASD01:50:18 00:41:43 7.979 00:05:14 01:48:56
128 1098970A1221852NASSUATO LUCATITANS TEAM NOCERA UMBRA01:50:33 00:41:58 8.008 00:05:14 01:49:16
129 1112979A1231692PARRINO CHRISTIANRUNCARD01:50:46 00:42:11 8.034 00:05:15 01:50:39
130 1117983A1241309ROMITO DAVIDEIO CAMMINO IO CORRO01:50:54 00:42:19 8.050 00:05:15 01:50:05
131 1123988A125765DONADIO DANIELEATLETICA FILOTTRANO ASD01:51:03 00:42:28 8.067 00:05:16 01:50:54
132 1129993A126373ROSABELLA MARCOAPERDIFIATO01:51:14 00:42:39 8.089 00:05:16 01:49:50
133 11501009A1271751BIAGIONI MARIORUNCARD01:51:50 00:43:15 8.158 00:05:18 01:51:17
134 11611018A128445MARCHIGIANO FABRIZIOASD PODISTI FRENTANI01:52:07 00:43:32 8.191 00:05:19 01:50:53
135 11621019A129448OTTAVIANO ANDREAASD PODISTI FRENTANI01:52:08 00:43:33 8.193 00:05:19 01:50:53
136 11791031A1301159CECCARELLI CARLOGP AVIS CASTELRAIMONDO01:52:36 00:44:01 8.247 00:05:20 01:52:09
137 11941046A131485GIGLIOTTI LUIGIASSATLLIBERTAS ORVIETO01:52:56 00:44:21 8.284 00:05:21 01:52:04
138 12051056A132941GIUNTI PIERLUIGIATLETICA WINNER FOLIGNO01:53:13 00:44:38 8.317 00:05:22 01:51:49
139 12071057A133770SPADACCINI LUCAATLETICA FILOTTRANO ASD01:53:25 00:44:50 8.339 00:05:23 01:52:40
140 12161063A1341673MONTANARI MATTIARUNCARD01:53:43 00:45:08 8.373 00:05:23 01:53:18
141 12631098A1351915D'ANDREA MORENOATLETICA WINNER FOLIGNO01:55:16 00:46:41 8.544 00:05:28 01:55:00
142 12661100A1361735URBANI LEONARDORUNCARD01:55:21 00:46:46 8.553 00:05:28 01:54:55
143 13261148A1371583BIAGETTI FRANCESCORUNCARD01:57:01 00:48:26 8.732 00:05:33 01:55:40
144 13291150A1381305BOSICA ANDREAIO CAMMINO IO CORRO01:57:07 00:48:32 8.742 00:05:33 01:57:02
145 13301151A139984RICCARDI LUCAATLETICA WINNER FOLIGNO01:57:08 00:48:33 8.744 00:05:33 01:56:55
146 13311152A1401596CANDELARESI MASSIMORUNCARD01:57:13 00:48:38 8.753 00:05:33 01:56:41
147 13941197A1411360PATUMI ALESSANDROMARATHON CLUB CITTA DI CASTEL01:59:27 00:50:52 8.983 00:05:40 01:58:26
148 14481236A142358CASAGRANDE DAVIDEAPERDIFIATO02:01:57 00:53:22 9.232 00:05:47 02:00:34
149 14891259A1431620CORROTTI MANUELERUNCARD02:03:51 00:55:16 9.414 00:05:52 02:02:46
150 15811316A144880CESARACCIO ALESSIOATLETICA UMBERTIDE02:10:21 01:01:46 9.996 00:06:11 02:09:24
151 16401350A145537PERNA VINCENZOASSISI RUNNERS ASD02:18:39 01:10:04 10.661 00:06:34 02:18:22
152 16561359A1461698RAGONESI LUIGIRUNCARD02:21:27 01:12:52 10.867 00:06:42 02:20:12
153 16871379A1471487GALLI YURIPODISTICA PRATESE ASD02:45:01 01:36:26 12.328 00:07:49 02:43:40
Righe per pagina::     TUTTE    |   30   |   50   |   100